Time;durP1;ratioP1;P1;durP2;ratioP2;P2;SDS_P1;SDS_P2;PMS_P1;PMS_P2;Temp;Humidity;BMP_temperature;BMP_pressure;BME280_temperature;BME280_humidity;BME280_pressure;Samples;Min_cycle;Max_cycle;Signal;HPM_P1;HPM_P2
2021/01/10 00:00:22;;;;;;;13.90;10.93;;;4.00;33.10;;;;;;5013267;28;20656;-67
2021/01/10 00:02:52;;;;;;;10.83;9.73;;;3.90;33.30;;;;;;5013486;28;20180;-67
2021/01/10 00:05:30;;;;;;;10.83;9.57;;;3.90;34.50;;;;;;5013345;28;20193;-68
2021/01/10 00:07:56;;;;;;;13.83;10.93;;;3.70;33.10;;;;;;5013002;28;20418;-66
2021/01/10 00:10:23;;;;;;;11.30;10.10;;;3.70;34.20;;;;;;5013359;28;20409;-66
2021/01/10 00:12:49;;;;;;;11.53;10.33;;;3.70;34.80;;;;;;5012537;28;20401;-68
2021/01/10 00:15:16;;;;;;;12.20;9.97;;;3.70;35.10;;;;;;5012954;28;20999;-68
2021/01/10 00:17:44;;;;;;;12.53;11.20;;;3.60;35.00;;;;;;5013115;28;20961;-67
2021/01/10 00:20:10;;;;;;;12.87;11.00;;;3.60;36.50;;;;;;5013221;28;20409;-69
2021/01/10 00:22:36;;;;;;;11.87;10.60;;;3.80;35.90;;;;;;5012913;28;20416;-68
2021/01/10 00:25:05;;;;;;;12.70;11.40;;;3.90;34.20;;;;;;5012989;28;20444;-68
2021/01/10 00:27:30;;;;;;;12.67;10.50;;;3.80;34.60;;;;;;5012945;28;20419;-68
2021/01/10 00:29:56;;;;;;;11.47;10.27;;;3.90;33.90;;;;;;5018208;28;20420;-68
2021/01/10 00:32:21;;;;;;;15.90;12.17;;;3.80;34.20;;;;;;5012973;28;20568;-68
2021/01/10 00:34:47;;;;;;;14.37;11.87;;;3.80;34.90;;;;;;5013097;28;20209;-67
2021/01/10 00:37:21;;;;;;;14.63;13.07;;;3.70;35.40;;;;;;5012626;28;20255;-68
2021/01/10 00:39:47;;;;;;;15.47;13.73;;;3.50;36.00;;;;;;4993601;28;20169;-67
2021/01/10 00:42:14;;;;;;;15.23;13.20;;;3.50;37.20;;;;;;5000961;28;20416;-67
2021/01/10 00:44:44;;;;;;;13.57;12.23;;;3.60;37.30;;;;;;5018919;28;21264;-68
2021/01/10 00:47:11;;;;;;;16.07;14.40;;;3.50;37.20;;;;;;5032315;28;20430;-67
2021/01/10 00:49:37;;;;;;;15.30;13.70;;;3.40;37.60;;;;;;5032452;28;20775;-68
2021/01/10 00:52:04;;;;;;;17.90;16.00;;;3.50;37.30;;;;;;5032267;28;20895;-68
2021/01/10 00:54:29;;;;;;;17.23;15.50;;;3.30;37.10;;;;;;5032201;28;20995;-68
2021/01/10 00:56:55;;;;;;;16.10;14.37;;;3.20;38.20;;;;;;5032152;28;20458;-68
2021/01/10 00:59:21;;;;;;;17.03;15.33;;;3.10;39.10;;;;;;5031978;28;20184;-67
2021/01/10 01:01:46;;;;;;;17.53;15.50;;;2.90;39.40;;;;;;5032157;28;20902;-68
2021/01/10 01:04:12;;;;;;;18.20;16.13;;;3.00;39.30;;;;;;5032132;28;20251;-67
2021/01/10 01:06:38;;;;;;;17.70;15.90;;;3.10;39.20;;;;;;5031871;28;20177;-66
2021/01/10 01:09:06;;;;;;;19.33;15.00;;;3.30;38.60;;;;;;5031890;28;20177;-66
2021/01/10 01:11:33;;;;;;;19.30;15.63;;;3.20;38.20;;;;;;5032237;28;20172;-66
2021/01/10 01:13:59;;;;;;;16.40;14.63;;;3.10;38.70;;;;;;5032104;28;20411;-66
2021/01/10 01:16:25;;;;;;;18.50;15.10;;;3.10;38.80;;;;;;5032032;28;20821;-66
2021/01/10 01:18:51;;;;;;;16.27;14.47;;;3.20;38.80;;;;;;5032062;28;20411;-66
2021/01/10 01:21:17;;;;;;;19.10;16.03;;;3.10;39.20;;;;;;5032019;28;20588;-66
2021/01/10 01:23:43;;;;;;;17.67;15.77;;;3.10;38.80;;;;;;5032039;28;20603;-66
2021/01/10 01:26:28;;;;;;;18.77;14.83;;;3.10;40.20;;;;;;5031971;28;20438;-66
2021/01/10 01:28:54;;;;;;;18.63;14.77;;;3.20;39.60;;;;;;5031548;28;20230;-66
2021/01/10 01:31:26;;;;;;;15.80;14.20;;;3.20;38.70;;;;;;5031950;28;20973;-66
2021/01/10 01:33:52;;;;;;;16.17;14.43;;;3.20;38.00;;;;;;5031827;28;20430;-66
2021/01/10 01:36:23;;;;;;;15.83;14.10;;;3.20;38.30;;;;;;5031580;28;20471;-66
2021/01/10 01:38:50;;;;;;;16.30;14.37;;;3.20;38.70;;;;;;5031687;28;20446;-66
2021/01/10 01:41:15;;;;;;;17.17;15.30;;;3.10;38.00;;;;;;5031616;28;20416;-66
2021/01/10 01:43:41;;;;;;;17.40;14.60;;;3.10;38.50;;;;;;5031689;28;20396;-66
2021/01/10 01:46:08;;;;;;;16.13;14.43;;;2.90;38.40;;;;;;5031626;28;20195;-66
2021/01/10 01:48:36;;;;;;;15.07;13.23;;;2.80;38.70;;;;;;5031500;28;20173;-66
2021/01/10 01:51:02;;;;;;;14.80;13.03;;;2.90;39.40;;;;;;5031773;28;20419;-66
2021/01/10 01:53:28;;;;;;;15.97;13.27;;;3.00;38.50;;;;;;5031707;28;20407;-66
2021/01/10 01:55:56;;;;;;;14.40;12.90;;;2.70;37.90;;;;;;5031447;28;20464;-66
2021/01/10 01:58:22;;;;;;;16.47;13.80;;;2.60;38.80;;;;;;5031524;28;20251;-66
2021/01/10 02:00:48;;;;;;;13.23;11.90;;;2.50;39.00;;;;;;5031507;28;20503;-66
2021/01/10 02:03:23;;;;;;;14.73;13.23;;;2.40;39.40;;;;;;5031458;28;20842;-66
2021/01/10 02:05:54;;;;;;;15.10;12.93;;;2.50;39.60;;;;;;5031268;28;20431;-66
2021/01/10 02:08:21;;;;;;;15.50;12.30;;;2.60;39.60;;;;;;5031104;28;20410;-66
2021/01/10 02:10:47;;;;;;;15.60;12.77;;;2.50;39.20;;;;;;5031168;28;20407;-66
2021/01/10 02:13:15;;;;;;;15.60;12.70;;;2.30;40.00;;;;;;5031184;28;20442;-66
2021/01/10 02:15:42;;;;;;;21.93;12.40;;;2.30;39.40;;;;;;5031028;28;20460;-66
2021/01/10 02:18:09;;;;;;;16.50;13.00;;;2.60;39.10;;;;;;5031045;28;20409;-66
2021/01/10 02:20:37;;;;;;;15.87;12.40;;;2.80;38.00;;;;;;5031116;28;20489;-66
2021/01/10 02:23:24;;;;;;;14.20;11.87;;;2.90;37.90;;;;;;5030918;28;20419;-66
2021/01/10 02:25:51;;;;;;;12.87;11.40;;;3.10;37.00;;;;;;5031042;28;20964;-66
2021/01/10 02:28:21;;;;;;;13.87;11.57;;;3.10;37.00;;;;;;5030844;28;20757;-66
2021/01/10 02:30:48;;;;;;;16.80;12.23;;;3.20;37.00;;;;;;5031007;28;20407;-66
2021/01/10 02:33:54;;;;;;;13.47;10.93;;;3.20;37.00;;;;;;5030792;28;20501;-66
2021/01/10 02:36:30;;;;;;;12.80;10.40;;;3.30;35.70;;;;;;5027996;28;20470;-66
2021/01/10 02:39:05;;;;;;;12.73;11.43;;;3.30;35.00;;;;;;5030648;28;20415;-66
2021/01/10 02:41:49;;;;;;;12.50;10.30;;;3.30;35.00;;;;;;5030776;28;20406;-66
2021/01/10 02:44:39;;;;;;;11.40;9.57;;;3.20;35.30;;;;;;5030854;28;20418;-66
2021/01/10 02:47:05;;;;;;;10.00;9.00;;;3.20;34.90;;;;;;5030504;28;20494;-66
2021/01/10 02:49:32;;;;;;;11.30;10.20;;;3.10;34.70;;;;;;5030736;28;20418;-66
2021/01/10 02:51:57;;;;;;;11.33;10.17;;;3.10;34.90;;;;;;5030612;28;20407;-66
2021/01/10 02:54:23;;;;;;;11.07;9.97;;;3.10;34.80;;;;;;5030437;28;20955;-66
2021/01/10 02:57:06;;;;;;;12.23;10.67;;;2.90;35.70;;;;;;5030354;28;20208;-66
2021/01/10 02:59:36;;;;;;;11.43;10.20;;;3.10;35.30;;;;;;5030867;28;20639;-66
2021/01/10 03:02:03;;;;;;;11.57;10.37;;;3.00;34.70;;;;;;5030510;28;20407;-66
2021/01/10 03:04:30;;;;;;;14.47;11.60;;;3.00;35.10;;;;;;5030548;28;20438;-66
2021/01/10 03:06:58;;;;;;;13.63;10.20;;;3.00;35.50;;;;;;5030609;28;20480;-66
2021/01/10 03:09:24;;;;;;;12.20;10.37;;;3.10;35.50;;;;;;5030413;28;20493;-66
2021/01/10 03:11:52;;;;;;;12.47;11.03;;;3.00;35.50;;;;;;5030745;28;20501;-66
2021/01/10 03:14:18;;;;;;;11.90;10.10;;;3.10;35.30;;;;;;5030503;28;20411;-66
2021/01/10 03:16:44;;;;;;;12.17;10.97;;;3.00;36.20;;;;;;5030441;28;20455;-66
2021/01/10 03:19:09;;;;;;;12.90;11.60;;;3.00;35.50;;;;;;5030336;28;20411;-66
2021/01/10 03:21:35;;;;;;;13.83;12.43;;;3.00;35.50;;;;;;5030594;28;20200;-66
2021/01/10 03:24:00;;;;;;;11.03;9.93;;;2.80;36.20;;;;;;5030304;28;20656;-66
2021/01/10 03:26:27;;;;;;;11.23;10.13;;;2.80;36.70;;;;;;5030548;28;20177;-66
2021/01/10 03:28:52;;;;;;;11.80;9.43;;;2.80;36.70;;;;;;5030431;28;20177;-66
2021/01/10 03:31:18;;;;;;;11.33;10.00;;;2.80;36.70;;;;;;5030630;28;20501;-66
2021/01/10 03:33:46;;;;;;;10.60;9.00;;;2.70;36.60;;;;;;5030509;28;20176;-66
2021/01/10 03:36:15;;;;;;;12.47;10.83;;;2.50;36.50;;;;;;5030206;28;20204;-66
2021/01/10 03:38:41;;;;;;;11.37;10.13;;;2.10;37.60;;;;;;5030125;28;20790;-66
2021/01/10 03:41:07;;;;;;;12.10;10.47;;;2.20;38.30;;;;;;5030162;28;20407;-66
2021/01/10 03:43:33;;;;;;;11.60;10.50;;;2.40;38.00;;;;;;5030378;28;20414;-66
2021/01/10 03:45:59;;;;;;;10.17;9.17;;;2.80;37.40;;;;;;5030153;28;20432;-66
2021/01/10 03:48:25;;;;;;;10.50;9.43;;;2.80;36.00;;;;;;5032094;28;20176;-66
2021/01/10 03:50:50;;;;;;;12.60;10.30;;;2.80;35.90;;;;;;5033824;28;20457;-66
2021/01/10 03:53:16;;;;;;;12.10;10.77;;;2.70;36.60;;;;;;5033659;28;20168;-66
2021/01/10 03:55:41;;;;;;;12.40;11.10;;;2.80;38.10;;;;;;5033479;28;20239;-66
2021/01/10 03:58:07;;;;;;;14.17;11.70;;;2.60;37.40;;;;;;5033430;28;20177;-66
2021/01/10 04:00:32;;;;;;;13.77;12.37;;;2.50;37.90;;;;;;5033590;28;20172;-66
2021/01/10 04:02:58;;;;;;;12.50;11.17;;;2.70;38.10;;;;;;5033481;28;20188;-66
2021/01/10 04:05:23;;;;;;;12.67;10.67;;;2.80;37.10;;;;;;5033456;28;20573;-66
2021/01/10 04:07:49;;;;;;;11.20;10.10;;;2.80;37.40;;;;;;5033262;28;20183;-66
2021/01/10 04:10:14;;;;;;;12.27;11.07;;;2.70;36.60;;;;;;5033408;28;20172;-66
2021/01/10 04:12:40;;;;;;;12.13;9.90;;;2.80;36.70;;;;;;5033370;28;20222;-66
2021/01/10 04:15:06;;;;;;;11.17;9.93;;;2.80;36.70;;;;;;5033355;28;20246;-66
2021/01/10 04:17:32;;;;;;;12.40;10.77;;;2.90;36.80;;;;;;5033086;28;20610;-66
2021/01/10 04:19:57;;;;;;;11.63;10.40;;;2.90;36.80;;;;;;5033330;28;20415;-66
2021/01/10 04:22:23;;;;;;;11.40;10.40;;;2.90;36.80;;;;;;5033148;28;20173;-66
2021/01/10 04:24:51;;;;;;;10.83;9.53;;;3.00;36.30;;;;;;5032949;28;20813;-66
2021/01/10 04:27:16;;;;;;;11.10;10.00;;;3.10;35.60;;;;;;5033090;28;20426;-66
2021/01/10 04:29:42;;;;;;;10.17;9.00;;;3.00;35.30;;;;;;5033132;28;20894;-66
2021/01/10 04:32:07;;;;;;;12.53;11.33;;;3.00;35.90;;;;;;5033004;28;20183;-66
2021/01/10 04:34:33;;;;;;;12.03;9.97;;;3.00;35.30;;;;;;5032990;28;20262;-66
2021/01/10 04:36:58;;;;;;;10.47;9.37;;;2.90;35.50;;;;;;5032790;28;20607;-66
2021/01/10 04:39:24;;;;;;;12.10;9.60;;;2.90;35.80;;;;;;5032900;28;20173;-66
2021/01/10 04:41:50;;;;;;;10.10;9.07;;;3.00;35.40;;;;;;5032915;28;20168;-66
2021/01/10 04:44:15;;;;;;;10.47;9.40;;;2.90;36.00;;;;;;5032846;28;20192;-66
2021/01/10 04:46:41;;;;;;;11.33;9.93;;;2.90;35.30;;;;;;5032916;28;20439;-66
2021/01/10 04:49:08;;;;;;;11.70;9.47;;;2.80;35.90;;;;;;5032623;28;20532;-66
2021/01/10 04:51:36;;;;;;;11.50;9.23;;;2.80;36.00;;;;;;5032646;28;20430;-66
2021/01/10 04:54:03;;;;;;;10.33;9.10;;;2.90;35.80;;;;;;5032586;28;20752;-66
2021/01/10 04:56:29;;;;;;;11.30;9.50;;;3.10;35.30;;;;;;5032788;28;20984;-66
2021/01/10 04:58:56;;;;;;;11.00;9.87;;;3.20;35.00;;;;;;5032005;28;20407;-66
2021/01/10 05:01:24;;;;;;;10.57;9.57;;;3.20;34.80;;;;;;5032433;28;20442;-66
2021/01/10 05:03:54;;;;;;;10.50;9.40;;;3.00;34.90;;;;;;5032473;28;20407;-66
2021/01/10 05:06:21;;;;;;;10.93;9.80;;;2.90;35.60;;;;;;5032412;28;20485;-66
2021/01/10 05:08:47;;;;;;;10.23;9.13;;;3.10;35.40;;;;;;5032178;28;20916;-66
2021/01/10 05:11:14;;;;;;;10.70;9.23;;;3.10;34.80;;;;;;5032277;28;20901;-66
2021/01/10 05:13:40;;;;;;;11.93;10.67;;;3.30;35.00;;;;;;5032292;28;20411;-66
2021/01/10 05:16:06;;;;;;;11.70;10.60;;;3.20;35.50;;;;;;5032037;28;20473;-66
2021/01/10 05:18:32;;;;;;;10.30;9.20;;;3.30;35.10;;;;;;5032059;28;20168;-66
2021/01/10 05:20:58;;;;;;;11.73;9.70;;;3.40;35.10;;;;;;5032087;28;20914;-66
2021/01/10 05:23:27;;;;;;;11.00;9.13;;;3.40;35.10;;;;;;5031970;28;20410;-66
2021/01/10 05:26:06;;;;;;;12.53;9.90;;;3.30;34.90;;;;;;5031981;28;20211;-66
2021/01/10 05:28:34;;;;;;;9.90;8.90;;;3.40;35.40;;;;;;5031767;28;20446;-66
2021/01/10 05:31:01;;;;;;;11.73;10.63;;;3.50;34.90;;;;;;5031980;28;20941;-66
2021/01/10 05:33:27;;;;;;;12.03;10.43;;;3.40;34.60;;;;;;5031867;28;20445;-66
2021/01/10 05:35:57;;;;;;;11.60;9.70;;;3.60;34.40;;;;;;5031730;28;20798;-66
2021/01/10 05:38:33;;;;;;;9.80;8.90;;;3.60;34.90;;;;;;5031626;28;20416;-66
2021/01/10 05:41:00;;;;;;;9.70;8.70;;;3.70;35.40;;;;;;5031762;28;20410;-66
2021/01/10 05:43:28;;;;;;;10.60;9.60;;;3.50;35.00;;;;;;5031726;28;20419;-66
2021/01/10 05:45:54;;;;;;;11.47;10.27;;;3.40;34.60;;;;;;5031552;28;20490;-66
2021/01/10 05:48:21;;;;;;;13.37;11.47;;;3.50;35.00;;;;;;5031486;28;20411;-66
2021/01/10 05:50:48;;;;;;;13.03;11.60;;;3.30;35.30;;;;;;5031540;28;20411;-66
2021/01/10 05:53:24;;;;;;;12.60;10.40;;;3.40;35.30;;;;;;5031379;28;20415;-66
2021/01/10 05:56:01;;;;;;;11.00;9.90;;;3.20;35.20;;;;;;5031355;28;20830;-66
2021/01/10 05:58:30;;;;;;;15.63;11.67;;;3.30;35.60;;;;;;5031306;28;20469;-66
2021/01/10 06:01:13;;;;;;;12.57;10.73;;;3.40;35.10;;;;;;5031565;28;20905;-66
2021/01/10 06:03:39;;;;;;;11.13;10.13;;;3.30;34.90;;;;;;5031506;28;20913;-66
2021/01/10 06:06:06;;;;;;;12.23;9.87;;;3.20;35.00;;;;;;5031326;28;20526;-65
2021/01/10 06:08:33;;;;;;;10.70;9.60;;;3.30;36.80;;;;;;5031190;28;20464;-68
2021/01/10 06:11:19;;;;;;;11.90;10.67;;;3.60;36.20;;;;;;5029249;28;20864;-66
2021/01/10 06:13:59;;;;;;;11.33;10.23;;;3.10;36.90;;;;;;5027228;28;20412;-66
2021/01/10 06:16:34;;;;;;;11.80;10.40;;;3.30;35.80;;;;;;5030455;28;20546;-66
2021/01/10 06:19:07;;;;;;;11.47;10.27;;;3.50;34.90;;;;;;5028935;28;20406;-66
2021/01/10 06:21:34;;;;;;;11.33;9.90;;;3.50;34.50;;;;;;5010655;28;20508;-65
2021/01/10 06:24:04;;;;;;;11.77;10.27;;;3.40;34.60;;;;;;5010383;28;20436;-66
2021/01/10 06:26:32;;;;;;;11.93;10.57;;;3.60;33.60;;;;;;5010726;28;20448;-66
2021/01/10 06:29:02;;;;;;;10.50;9.50;;;3.60;34.40;;;;;;5010246;28;20830;-66
2021/01/10 06:31:33;;;;;;;11.87;10.03;;;3.50;34.70;;;;;;5011006;28;20415;-66
2021/01/10 06:34:07;;;;;;;11.40;10.27;;;3.60;34.40;;;;;;5010787;28;20440;-66
2021/01/10 06:36:35;;;;;;;11.33;10.30;;;3.80;34.40;;;;;;5010507;28;20451;-66
2021/01/10 06:39:07;;;;;;;11.97;10.77;;;3.60;33.80;;;;;;5010612;28;20412;-64
2021/01/10 06:41:35;;;;;;;11.87;10.67;;;3.60;34.50;;;;;;5011059;28;20504;-64
2021/01/10 06:44:06;;;;;;;10.30;9.30;;;3.70;34.00;;;;;;5010464;28;20931;-63
2021/01/10 06:46:32;;;;;;;10.70;9.63;;;3.70;34.30;;;;;;5010663;28;20420;-64
2021/01/10 06:49:00;;;;;;;10.47;9.37;;;3.70;33.60;;;;;;5010554;28;20405;-64
2021/01/10 06:51:28;;;;;;;11.10;10.00;;;3.70;34.60;;;;;;5010467;28;20450;-64
2021/01/10 06:53:54;;;;;;;11.83;10.23;;;3.60;34.10;;;;;;5010590;28;20432;-64
2021/01/10 06:56:20;;;;;;;10.07;9.07;;;3.40;34.40;;;;;;5010588;28;20506;-65
2021/01/10 06:59:05;;;;;;;11.70;10.50;;;3.40;34.60;;;;;;5009318;28;20441;-65
2021/01/10 07:01:48;;;;;;;12.60;10.47;;;3.60;34.80;;;;;;5010526;28;20912;-65
2021/01/10 07:04:33;;;;;;;11.97;10.77;;;3.40;34.60;;;;;;5010257;28;20408;-65
2021/01/10 07:06:58;;;;;;;11.87;10.57;;;3.30;35.10;;;;;;5010080;28;20420;-65
2021/01/10 07:09:25;;;;;;;11.43;10.23;;;3.40;35.90;;;;;;5010219;28;20408;-65
2021/01/10 07:11:51;;;;;;;11.07;9.97;;;3.50;35.70;;;;;;5010646;28;20182;-65
2021/01/10 07:14:17;;;;;;;12.20;11.07;;;3.50;35.30;;;;;;5010207;28;20408;-65
2021/01/10 07:16:44;;;;;;;11.47;9.60;;;3.50;35.10;;;;;;5010247;28;20463;-65
2021/01/10 07:19:14;;;;;;;10.50;9.40;;;3.60;35.10;;;;;;5010584;28;20546;-66
2021/01/10 07:21:47;;;;;;;9.27;8.37;;;3.70;39.10;;;;;;5011363;28;20543;-65
2021/01/10 07:24:12;;;;;;;9.80;8.80;;;7.00;56.00;;;;;;5014112;28;20930;-67
2021/01/10 07:26:43;;;;;;;10.23;9.10;;;7.50;47.70;;;;;;5014323;28;20407;-68
2021/01/10 07:29:27;;;;;;;10.93;9.83;;;7.30;40.40;;;;;;5013622;28;20668;-67
2021/01/10 07:31:54;;;;;;;11.73;10.53;;;5.90;31.50;;;;;;5014228;28;20407;-67
2021/01/10 07:34:20;;;;;;;12.20;10.90;;;5.80;42.00;;;;;;5014257;28;20435;-68
2021/01/10 07:36:47;;;;;;;12.33;11.03;;;5.20;31.50;;;;;;5013879;28;20512;-68
2021/01/10 07:39:14;;;;;;;11.03;9.60;;;4.80;32.70;;;;;;5013919;28;20177;-68
2021/01/10 07:41:40;;;;;;;21.87;10.50;;;4.20;33.40;;;;;;5013812;28;20434;-68
2021/01/10 07:44:06;;;;;;;11.57;10.37;;;3.40;35.00;;;;;;5013534;28;20629;-67
2021/01/10 07:46:50;;;;;;;12.97;11.70;;;3.50;35.60;;;;;;5014024;28;20199;-68
2021/01/10 07:49:19;;;;;;;11.20;10.10;;;3.70;35.20;;;;;;5013837;28;20499;-68
2021/01/10 07:51:45;;;;;;;10.97;9.87;;;3.60;35.50;;;;;;5013475;28;20495;-68
2021/01/10 07:54:10;;;;;;;15.90;12.77;;;3.60;36.20;;;;;;5013632;28;20555;-66
2021/01/10 07:56:36;;;;;;;14.23;10.80;;;3.60;36.30;;;;;;5013590;28;20398;-66
2021/01/10 07:59:14;;;;;;;11.67;10.47;;;3.80;35.70;;;;;;5013060;28;20256;-66
2021/01/10 08:01:47;;;;;;;13.40;10.63;;;3.90;35.20;;;;;;5013644;28;20208;-66
2021/01/10 08:04:30;;;;;;;13.37;10.67;;;4.00;35.60;;;;;;5013535;28;20408;-66
2021/01/10 08:06:57;;;;;;;12.20;11.03;;;3.80;36.40;;;;;;5013842;28;20408;-66
2021/01/10 08:09:25;;;;;;;12.70;11.50;;;3.50;37.30;;;;;;5013348;28;20420;-66
2021/01/10 08:11:53;;;;;;;10.50;9.47;;;3.60;37.40;;;;;;5013645;28;20493;-66
2021/01/10 08:14:19;;;;;;;12.80;10.50;;;3.70;36.00;;;;;;5013559;28;20412;-65
2021/01/10 08:16:44;;;;;;;11.73;10.63;;;3.80;36.70;;;;;;5013507;28;20459;-65
2021/01/10 08:19:10;;;;;;;12.60;11.33;;;3.90;36.00;;;;;;5013597;28;20169;-66
2021/01/10 08:21:35;;;;;;;14.73;11.07;;;3.80;36.00;;;;;;5013655;28;20184;-66
2021/01/10 08:24:03;;;;;;;12.03;10.83;;;3.80;36.60;;;;;;5013232;28;20540;-66
2021/01/10 08:26:28;;;;;;;10.73;9.73;;;3.60;35.40;;;;;;5013336;28;20165;-65
2021/01/10 08:28:56;;;;;;;11.60;10.33;;;3.50;35.50;;;;;;5013110;28;20435;-65
2021/01/10 08:31:26;;;;;;;13.30;11.10;;;3.70;35.90;;;;;;5002646;28;20240;-66
2021/01/10 08:33:59;;;;;;;12.37;11.17;;;3.70;35.10;;;;;;5011875;28;20412;-65
2021/01/10 08:36:25;;;;;;;12.83;10.90;;;3.80;34.60;;;;;;5012665;28;20975;-66
2021/01/10 08:38:52;;;;;;;14.93;11.47;;;3.80;34.70;;;;;;5012299;28;20421;-66
2021/01/10 08:41:26;;;;;;;13.90;11.43;;;3.80;34.90;;;;;;5012817;28;20408;-65
2021/01/10 08:44:01;;;;;;;12.23;10.57;;;3.70;35.50;;;;;;5012759;28;20396;-66
2021/01/10 08:46:32;;;;;;;10.97;9.90;;;3.70;34.90;;;;;;5012506;28;20414;-66
2021/01/10 08:48:59;;;;;;;11.00;9.90;;;3.80;34.70;;;;;;5012645;28;20415;-65
2021/01/10 08:51:38;;;;;;;10.80;9.50;;;3.80;34.20;;;;;;5012619;28;20927;-66
2021/01/10 08:54:10;;;;;;;11.53;10.43;;;3.80;34.10;;;;;;5011763;28;20439;-66
2021/01/10 08:56:37;;;;;;;11.00;9.90;;;3.90;34.50;;;;;;5010157;28;20974;-66
2021/01/10 08:59:04;;;;;;;12.63;9.23;;;3.90;34.60;;;;;;5012183;28;20539;-66
2021/01/10 09:01:30;;;;;;;11.93;10.73;;;4.10;33.80;;;;;;5012530;28;20423;-65
2021/01/10 09:04:04;;;;;;;12.77;10.87;;;4.10;33.80;;;;;;5012567;28;20413;-65
2021/01/10 09:06:43;;;;;;;12.30;11.10;;;4.10;33.50;;;;;;5012648;28;20169;-68
2021/01/10 09:09:32;;;;;;;13.43;12.03;;;4.10;33.90;;;;;;5011995;28;20403;-65
2021/01/10 09:12:06;;;;;;;12.73;11.47;;;4.00;33.90;;;;;;5009345;28;20424;-65
2021/01/10 09:14:42;;;;;;;11.10;10.00;;;4.10;34.30;;;;;;5012598;28;20526;-65
2021/01/10 09:17:09;;;;;;;12.00;10.60;;;4.10;34.50;;;;;;5011856;28;20447;-64
2021/01/10 09:19:36;;;;;;;12.77;10.63;;;4.10;33.30;;;;;;5012192;28;20408;-64
2021/01/10 09:22:03;;;;;;;11.30;10.13;;;4.10;34.20;;;;;;5012489;28;20419;-65
2021/01/10 09:24:34;;;;;;;12.77;10.90;;;4.10;33.70;;;;;;5010902;28;20460;-63
2021/01/10 09:27:15;;;;;;;12.37;11.07;;;4.20;34.20;;;;;;5012472;28;20483;-64
2021/01/10 09:29:41;;;;;;;10.90;9.73;;;4.00;33.70;;;;;;5012262;28;20412;-64
2021/01/10 09:32:09;;;;;;;10.80;9.70;;;3.80;34.20;;;;;;5012011;28;20405;-65
2021/01/10 09:34:35;;;;;;;12.23;10.80;;;3.90;33.90;;;;;;5012237;28;20482;-65
2021/01/10 09:37:07;;;;;;;11.37;10.17;;;3.90;33.80;;;;;;5012414;28;20472;-65
2021/01/10 09:39:44;;;;;;;11.83;10.53;;;3.80;34.50;;;;;;5012437;28;20664;-64
2021/01/10 09:42:13;;;;;;;10.90;9.70;;;3.80;34.50;;;;;;5012424;28;20459;-64
2021/01/10 09:44:39;;;;;;;13.93;9.80;;;3.90;35.40;;;;;;5011284;28;20456;-64
2021/01/10 09:47:05;;;;;;;11.80;10.60;;;4.00;35.40;;;;;;5011774;28;20466;-64
2021/01/10 09:49:32;;;;;;;10.90;9.87;;;4.20;34.40;;;;;;5011948;28;20474;-63
2021/01/10 09:52:10;;;;;;;10.80;9.70;;;4.40;33.90;;;;;;5011643;28;20938;-64
2021/01/10 09:54:36;;;;;;;10.80;9.70;;;4.30;33.10;;;;;;5011678;28;20941;-63
2021/01/10 09:57:08;;;;;;;23.47;11.30;;;4.10;34.50;;;;;;5011407;28;20467;-65
2021/01/10 09:59:36;;;;;;;12.50;10.47;;;4.20;34.00;;;;;;5011557;28;20241;-64
2021/01/10 10:02:15;;;;;;;10.23;9.13;;;4.30;34.40;;;;;;5011659;28;20491;-66
2021/01/10 10:05:19;;;;;;;11.23;10.03;;;4.20;33.20;;;;;;5011340;28;20808;-66
2021/01/10 10:07:47;;;;;;;10.80;9.70;;;4.20;34.60;;;;;;5011341;28;20436;-66
2021/01/10 10:10:23;;;;;;;10.93;9.30;;;3.90;33.40;;;;;;5011621;28;20416;-64
2021/01/10 10:12:52;;;;;;;12.00;10.53;;;4.10;33.40;;;;;;5011520;28;20412;-64
2021/01/10 10:15:18;;;;;;;11.67;10.57;;;4.20;34.10;;;;;;5003174;28;20439;-64
2021/01/10 10:17:44;;;;;;;12.20;10.97;;;4.10;33.50;;;;;;5010102;28;20459;-64
2021/01/10 10:20:10;;;;;;;11.27;10.17;;;4.30;33.00;;;;;;5010596;28;20423;-66
2021/01/10 10:22:37;;;;;;;10.37;9.37;;;4.30;33.30;;;;;;5010500;28;20166;-66
2021/01/10 10:25:09;;;;;;;11.13;8.30;;;4.00;33.20;;;;;;5010762;28;20452;-66
2021/01/10 10:27:51;;;;;;;12.23;9.77;;;4.10;33.30;;;;;;5010586;28;20423;-64
2021/01/10 10:30:17;;;;;;;10.63;9.07;;;4.20;33.40;;;;;;5010640;28;20404;-66
2021/01/10 10:32:43;;;;;;;10.20;9.20;;;4.40;32.80;;;;;;5010460;28;20408;-63
2021/01/10 10:35:09;;;;;;;10.27;8.80;;;4.50;33.00;;;;;;5008822;28;20938;-63
2021/01/10 10:37:35;;;;;;;9.80;8.87;;;4.60;32.30;;;;;;5004675;28;20209;-63
2021/01/10 10:40:02;;;;;;;9.53;8.53;;;4.50;31.80;;;;;;5032384;28;20413;-63
2021/01/10 10:42:27;;;;;;;10.10;9.10;;;4.50;33.40;;;;;;5009399;28;20431;-63
2021/01/10 10:44:53;;;;;;;10.73;8.97;;;4.60;33.40;;;;;;5010209;28;20797;-63
2021/01/10 10:47:18;;;;;;;9.77;8.77;;;4.60;31.70;;;;;;5009956;28;20260;-63
2021/01/10 10:49:44;;;;;;;9.73;8.83;;;4.80;33.20;;;;;;5010174;28;20178;-63
2021/01/10 10:52:11;;;;;;;10.90;9.80;;;4.90;32.50;;;;;;5010207;28;20173;-63
2021/01/10 10:54:37;;;;;;;9.70;8.70;;;5.00;31.30;;;;;;5010327;28;20853;-63
2021/01/10 10:57:03;;;;;;;9.20;8.40;;;5.00;31.10;;;;;;5011862;28;20484;-63
2021/01/10 10:59:29;;;;;;;13.60;10.27;;;5.00;30.30;;;;;;5014420;28;20444;-64
2021/01/10 11:01:54;;;;;;;10.00;9.10;;;4.70;31.40;;;;;;5014521;28;20853;-63
2021/01/10 11:04:20;;;;;;;10.50;9.50;;;4.70;30.80;;;;;;5014450;28;20463;-63
2021/01/10 11:06:46;;;;;;;8.43;7.63;;;4.90;30.90;;;;;;5014712;28;20181;-64
2021/01/10 11:09:11;;;;;;;10.90;9.80;;;4.80;30.60;;;;;;5014815;28;20176;-63
2021/01/10 11:11:43;;;;;;;12.40;9.20;;;4.80;30.80;;;;;;5014845;28;20720;-64
2021/01/10 11:14:10;;;;;;;9.83;8.93;;;4.90;30.80;;;;;;5014705;28;20219;-64
2021/01/10 11:16:37;;;;;;;8.93;8.03;;;4.50;30.50;;;;;;5014910;28;20466;-64
2021/01/10 11:19:06;;;;;;;9.17;8.27;;;4.70;31.40;;;;;;5014909;28;20776;-64
2021/01/10 11:21:43;;;;;;;9.90;9.10;;;4.70;31.00;;;;;;5013943;28;20921;-64
2021/01/10 11:24:10;;;;;;;10.40;9.40;;;4.80;30.70;;;;;;5014263;28;20562;-64
2021/01/10 11:26:36;;;;;;;9.13;8.23;;;4.80;32.20;;;;;;5014713;28;20427;-64
2021/01/10 11:29:04;;;;;;;10.37;9.30;;;4.80;31.20;;;;;;5013699;28;20412;-64
2021/01/10 11:31:30;;;;;;;13.77;9.20;;;4.90;31.20;;;;;;5013453;28;20412;-64
2021/01/10 11:33:56;;;;;;;11.00;9.17;;;4.80;31.20;;;;;;5014332;28;20486;-64
2021/01/10 11:36:22;;;;;;;10.83;9.57;;;4.70;31.30;;;;;;5014152;28;20990;-64
2021/01/10 11:38:50;;;;;;;17.27;13.27;;;4.70;31.70;;;;;;5014356;28;20169;-64
2021/01/10 11:41:16;;;;;;;11.23;9.90;;;4.80;32.00;;;;;;5014365;28;20494;-64
2021/01/10 11:43:42;;;;;;;10.40;9.40;;;4.90;32.50;;;;;;5014337;28;20409;-63
2021/01/10 11:46:08;;;;;;;12.67;9.77;;;4.80;31.80;;;;;;5013916;28;20463;-64
2021/01/10 11:48:34;;;;;;;12.10;10.90;;;4.80;32.10;;;;;;5014203;28;20177;-64
2021/01/10 11:51:01;;;;;;;10.47;9.40;;;4.80;33.30;;;;;;5014185;28;20412;-64
2021/01/10 11:53:28;;;;;;;11.27;10.07;;;4.80;31.70;;;;;;5014511;28;20416;-64
2021/01/10 11:55:53;;;;;;;10.77;9.70;;;4.80;32.00;;;;;;5013903;28;20452;-64
2021/01/10 11:58:19;;;;;;;11.97;9.23;;;4.80;31.00;;;;;;5013976;28;20456;-64
2021/01/10 12:00:48;;;;;;;10.87;9.50;;;4.60;32.60;;;;;;5014089;28;20162;-64
2021/01/10 12:03:13;;;;;;;9.50;8.60;;;4.90;31.80;;;;;;5014151;28;20188;-64
2021/01/10 12:05:40;;;;;;;10.50;9.07;;;5.00;31.30;;;;;;5013942;28;20922;-64
2021/01/10 12:08:06;;;;;;;8.73;7.90;;;5.10;31.40;;;;;;5012677;28;20546;-64
2021/01/10 12:10:34;;;;;;;9.50;8.10;;;5.20;30.50;;;;;;5014030;28;20409;-64
2021/01/10 12:13:00;;;;;;;9.83;8.93;;;5.20;32.50;;;;;;5013672;28;20466;-63
2021/01/10 12:15:25;;;;;;;9.17;8.27;;;5.50;30.50;;;;;;5013123;28;20433;-63
2021/01/10 12:17:51;;;;;;;10.13;8.97;;;5.50;30.90;;;;;;5013493;28;20456;-63
2021/01/10 12:20:16;;;;;;;10.23;9.07;;;5.50;30.60;;;;;;5013653;28;20178;-63
2021/01/10 12:22:42;;;;;;;10.73;9.63;;;5.30;30.00;;;;;;5013552;28;20209;-63
2021/01/10 12:25:08;;;;;;;8.93;8.03;;;5.30;30.60;;;;;;5013476;28;20217;-63
2021/01/10 12:27:35;;;;;;;10.43;8.20;;;5.20;31.30;;;;;;5013238;28;20181;-64
2021/01/10 12:30:00;;;;;;;8.80;7.60;;;5.20;30.20;;;;;;5013473;28;20825;-63
2021/01/10 12:32:28;;;;;;;8.50;7.80;;;5.30;30.90;;;;;;5013263;28;20495;-64
2021/01/10 12:34:54;;;;;;;8.60;7.50;;;5.30;30.20;;;;;;5013290;28;20205;-64
2021/01/10 12:37:20;;;;;;;7.17;6.50;;;5.20;30.30;;;;;;5012980;28;20468;-64
2021/01/10 12:39:46;;;;;;;8.80;7.80;;;5.40;29.70;;;;;;5013302;28;20833;-64
2021/01/10 12:42:17;;;;;;;7.03;6.43;;;5.50;30.70;;;;;;5013128;28;20412;-64
2021/01/10 12:44:43;;;;;;;7.40;6.70;;;5.50;29.20;;;;;;5013196;28;20603;-64
2021/01/10 12:47:09;;;;;;;8.23;7.33;;;5.50;29.40;;;;;;5013030;28;20412;-64
2021/01/10 12:49:35;;;;;;;7.67;6.80;;;5.60;29.20;;;;;;5012873;28;20289;-64